Time;durP1;ratioP1;P1;durP2;ratioP2;P2;SDS_P1;SDS_P2;PMS_P1;PMS_P2;Temp;Humidity;BMP_temperature;BMP_pressure;BME280_temperature;BME280_humidity;BME280_pressure;Samples;Min_cycle;Max_cycle;Signal;HPM_P1;HPM_P2
2022/10/12 00:02:23;;;;;;;7.30;2.47;;;11.60;99.90;;;11.73;nan;101400.03;5011159;28;20610;-66
2022/10/12 00:04:49;;;;;;;8.23;3.23;;;11.50;99.90;;;11.62;nan;101388.44;5011433;28;20642;-67
2022/10/12 00:07:16;;;;;;;7.30;2.57;;;11.50;99.90;;;11.62;nan;101395.44;5011555;28;20638;-67
2022/10/12 00:09:43;;;;;;;4.40;2.43;;;11.50;99.90;;;11.71;nan;101397.50;5010707;28;20641;-67
2022/10/12 00:12:10;;;;;;;7.40;2.30;;;11.40;99.90;;;11.40;nan;101395.97;5011150;28;20625;-67
2022/10/12 00:14:37;;;;;;;2.23;2.00;;;11.30;99.90;;;11.36;nan;101398.88;5010693;28;20672;-66
2022/10/12 00:17:04;;;;;;;7.80;2.00;;;11.20;99.90;;;11.27;nan;101396.81;5011561;28;20724;-66
2022/10/12 00:19:31;;;;;;;5.50;2.40;;;11.10;99.90;;;11.29;nan;101397.56;5011390;28;21174;-67
2022/10/12 00:21:58;;;;;;;5.90;2.60;;;11.10;99.90;;;11.17;nan;101400.94;5009830;28;20651;-65
2022/10/12 00:24:25;;;;;;;2.47;1.83;;;11.00;99.90;;;11.09;nan;101411.03;5011484;28;20649;-68
2022/10/12 00:26:52;;;;;;;3.60;1.60;;;10.90;99.90;;;11.19;nan;101414.75;5010036;28;20961;-67
2022/10/12 00:29:19;;;;;;;2.87;1.57;;;10.90;99.90;;;11.20;nan;101419.06;5010072;28;20641;-66
2022/10/12 00:31:45;;;;;;;2.23;1.40;;;10.90;99.90;;;11.19;nan;101422.59;4984920;28;20645;-66
2022/10/12 00:34:12;;;;;;;3.57;1.73;;;10.90;99.90;;;11.26;nan;101418.69;5009971;28;20670;-68
2022/10/12 00:36:39;;;;;;;2.43;1.10;;;10.90;99.90;;;11.23;nan;101424.94;5009911;28;20642;-67
2022/10/12 00:39:08;;;;;;;2.80;1.43;;;11.00;99.90;;;11.21;nan;101425.94;5008079;28;20717;-67
2022/10/12 00:41:42;;;;;;;2.90;1.50;;;11.00;99.90;;;11.17;nan;101425.31;5010893;28;21006;-68
2022/10/12 00:44:41;;;;;;;5.60;1.57;;;10.90;99.90;;;11.34;nan;101417.25;5011259;28;20703;-67
2022/10/12 00:47:32;;;;;;;8.03;1.50;;;11.00;99.90;;;11.23;nan;101417.09;4994090;28;20630;-67
2022/10/12 00:50:31;;;;;;;1.67;1.20;;;11.00;99.90;;;11.28;nan;101411.59;4992559;28;20705;-68
2022/10/12 00:53:01;;;;;;;1.77;1.60;;;10.90;99.90;;;11.17;nan;101421.84;5007926;28;20634;-68
2022/10/12 00:55:35;;;;;;;3.43;1.40;;;10.90;99.90;;;11.15;nan;101418.50;5010346;28;21044;-67
2022/10/12 00:58:06;;;;;;;3.63;1.80;;;10.90;99.90;;;11.10;nan;101417.94;5010607;28;21036;-66
2022/10/12 01:00:35;;;;;;;4.83;2.40;;;10.80;99.90;;;10.99;nan;101413.38;4991560;28;21400;-66
2022/10/12 01:03:05;;;;;;;2.00;1.90;;;10.80;99.90;;;10.80;nan;101416.25;4993009;28;20630;-66
2022/10/12 01:05:33;;;;;;;3.40;2.03;;;10.80;99.90;;;10.65;nan;101416.34;5010028;28;20670;-67
2022/10/12 01:08:01;;;;;;;6.43;1.90;;;10.70;99.90;;;10.78;nan;101417.28;5010515;28;20625;-65
2022/10/12 01:10:28;;;;;;;9.27;2.17;;;10.60;99.90;;;10.71;nan;101408.97;5010653;28;21002;-67
2022/10/12 01:12:55;;;;;;;3.60;1.73;;;10.50;99.90;;;10.60;nan;101413.19;5011092;28;20631;-67
2022/10/12 01:15:27;;;;;;;7.27;2.37;;;10.50;99.90;;;10.64;nan;101409.47;4992841;28;20668;-67
2022/10/12 01:18:47;;;;;;;5.00;2.13;;;10.50;99.90;;;10.52;nan;101421.44;5009762;28;21057;-68
2022/10/12 01:21:22;;;;;;;3.00;2.03;;;10.40;99.90;;;10.49;nan;101421.66;4957269;28;21170;-66
2022/10/12 01:24:26;;;;;;;5.47;1.93;;;10.30;99.90;;;10.47;nan;101417.44;5004729;28;21012;-67
2022/10/12 01:27:28;;;;;;;2.43;2.03;;;10.30;99.90;;;10.49;nan;101420.81;5005804;28;20625;-67
2022/10/12 01:30:09;;;;;;;2.17;1.50;;;10.30;99.90;;;10.39;nan;101419.66;4991606;28;20640;-67
2022/10/12 01:33:09;;;;;;;2.83;1.80;;;10.30;99.90;;;10.52;nan;101415.41;5010477;28;20619;-66
2022/10/12 01:36:05;;;;;;;2.40;1.93;;;10.30;99.90;;;10.40;nan;101411.75;4981191;28;20750;-67
2022/10/12 01:38:47;;;;;;;2.83;1.70;;;10.30;99.90;;;10.44;nan;101413.25;4980754;28;21219;-67
2022/10/12 01:41:33;;;;;;;3.73;1.73;;;10.30;99.90;;;10.37;nan;101411.91;5003457;28;20622;-66
2022/10/12 01:44:00;;;;;;;2.00;1.80;;;10.20;99.90;;;10.39;nan;101414.47;5014358;28;21227;-68
2022/10/12 01:46:27;;;;;;;4.33;1.80;;;10.20;99.90;;;10.40;nan;101411.75;5011639;28;20638;-67
2022/10/12 01:49:00;;;;;;;3.80;1.80;;;10.20;99.90;;;10.49;nan;101405.16;5013481;28;21159;-67
2022/10/12 01:52:20;;;;;;;4.73;2.10;;;10.20;99.90;;;10.50;nan;101402.44;4977745;28;20613;-68
2022/10/12 01:55:37;;;;;;;1.67;1.53;;;10.30;99.90;;;10.43;nan;101395.94;5013646;28;20669;-65
2022/10/12 01:59:01;;;;;;;2.93;2.40;;;10.30;99.90;;;10.34;nan;101395.63;4994551;28;21200;-67
2022/10/12 02:02:02;;;;;;;1.90;1.80;;;10.20;99.90;;;10.43;nan;101403.75;4996918;28;20641;-67
2022/10/12 02:04:47;;;;;;;3.27;2.00;;;10.20;99.90;;;10.32;nan;101397.47;4992446;28;21056;-66
2022/10/12 02:07:48;;;;;;;4.10;2.50;;;10.20;99.90;;;10.31;nan;101396.63;4992445;28;21005;-67
2022/10/12 02:10:34;;;;;;;4.33;2.20;;;10.20;99.90;;;10.35;nan;101392.91;4973479;28;21199;-67
2022/10/12 02:13:06;;;;;;;2.57;1.93;;;10.20;99.90;;;10.35;nan;101397.31;4995418;28;20618;-67
2022/10/12 02:15:34;;;;;;;2.73;1.80;;;10.20;99.90;;;10.39;nan;101391.78;4992875;28;20684;-66
2022/10/12 02:18:03;;;;;;;6.00;2.20;;;10.20;99.90;;;10.40;nan;101390.88;4995452;28;20635;-67
2022/10/12 02:20:32;;;;;;;3.90;1.97;;;10.20;99.90;;;10.41;nan;101384.75;4995088;28;20635;-66
2022/10/12 02:23:01;;;;;;;5.40;2.10;;;10.20;99.90;;;10.42;nan;101378.56;4992427;28;20636;-65
2022/10/12 02:25:31;;;;;;;3.70;1.73;;;10.20;99.90;;;10.46;nan;101387.91;4984545;28;20650;-67
2022/10/12 02:28:09;;;;;;;1.80;1.70;;;10.20;99.90;;;10.55;nan;101379.53;4990989;28;20627;-67
2022/10/12 02:31:43;;;;;;;2.90;1.73;;;10.20;99.90;;;10.57;nan;101380.28;4994697;28;20646;-68
2022/10/12 02:34:51;;;;;;;4.83;2.43;;;10.20;99.90;;;10.58;nan;101373.28;4915242;29;20683;-67
2022/10/12 02:38:01;;;;;;;6.10;2.60;;;10.30;99.90;;;10.48;nan;101374.75;4916678;29;20678;-68
2022/10/12 02:40:35;;;;;;;7.20;2.07;;;10.30;99.90;;;10.55;nan;101376.91;4993815;28;20644;-67
2022/10/12 02:43:42;;;;;;;4.23;2.43;;;10.30;99.90;;;10.33;nan;101363.47;4994799;28;21112;-67
2022/10/12 02:46:10;;;;;;;6.33;2.27;;;10.20;99.90;;;10.39;nan;101372.72;4994432;28;20640;-67
2022/10/12 02:48:39;;;;;;;4.20;2.50;;;10.20;99.90;;;10.35;nan;101369.44;4993424;28;20589;-67
2022/10/12 02:51:08;;;;;;;2.93;2.50;;;10.10;99.90;;;10.13;nan;101369.88;4994141;28;20635;-68
2022/10/12 02:53:35;;;;;;;6.37;2.60;;;10.10;99.90;;;10.11;nan;101357.84;4992891;28;21211;-67
2022/10/12 02:56:07;;;;;;;4.73;2.10;;;10.00;99.90;;;10.10;nan;101364.81;4994968;28;20624;-68
2022/10/12 02:58:34;;;;;;;8.47;2.97;;;10.00;99.90;;;10.17;nan;101362.69;5005295;28;21153;-67
2022/10/12 03:01:00;;;;;;;2.40;2.00;;;10.00;99.90;;;10.18;nan;101355.72;5002410;28;20636;-66
2022/10/12 03:03:28;;;;;;;5.63;3.17;;;10.00;99.90;;;10.08;nan;101360.59;5009094;28;20602;-66
2022/10/12 03:05:55;;;;;;;5.60;2.30;;;10.00;99.90;;;10.16;nan;101354.97;5011089;28;20638;-67
2022/10/12 03:08:22;;;;;;;2.30;1.90;;;10.00;99.90;;;10.26;nan;101356.94;5011624;28;20629;-68
2022/10/12 03:10:49;;;;;;;2.80;2.17;;;10.00;99.90;;;10.32;nan;101358.34;5010297;28;20655;-67
2022/10/12 03:13:16;;;;;;;4.63;2.57;;;10.00;99.90;;;10.40;nan;101354.34;5012182;28;20631;-67
2022/10/12 03:15:43;;;;;;;6.13;2.50;;;10.10;99.90;;;10.32;nan;101355.75;5010379;28;20677;-67
2022/10/12 03:18:10;;;;;;;2.93;2.63;;;10.10;99.90;;;10.28;nan;101346.41;4994461;28;20622;-67
2022/10/12 03:20:37;;;;;;;12.70;2.10;;;10.10;99.90;;;10.25;nan;101351.81;5010513;28;21051;-65
2022/10/12 03:23:04;;;;;;;8.23;1.87;;;10.10;99.90;;;10.34;nan;101349.50;5010805;28;20666;-66
2022/10/12 03:25:31;;;;;;;6.10;2.50;;;10.10;99.90;;;10.37;nan;101358.91;5010012;28;20674;-68
2022/10/12 03:27:58;;;;;;;3.80;2.40;;;10.10;99.90;;;10.50;nan;101365.91;5011409;28;20633;-67
2022/10/12 03:30:25;;;;;;;5.43;2.37;;;10.10;99.90;;;10.43;nan;101367.22;5010191;28;20710;-68
2022/10/12 03:32:52;;;;;;;4.60;2.50;;;10.20;99.90;;;10.33;nan;101363.47;5011748;28;21253;-65
2022/10/12 03:35:19;;;;;;;3.90;2.90;;;10.20;99.90;;;10.30;nan;101362.81;5014300;22;21252;-64
2022/10/12 03:37:46;;;;;;;9.70;2.53;;;10.10;99.90;;;10.36;nan;101371.13;5000000;28;20643;-63
2022/10/12 03:40:13;;;;;;;8.33;2.80;;;10.10;99.90;;;10.20;nan;101365.13;4991723;28;20634;-62
2022/10/12 03:42:40;;;;;;;3.37;2.40;;;10.10;99.90;;;10.30;nan;101368.88;4991639;28;20631;-62
2022/10/12 03:45:08;;;;;;;7.40;2.57;;;10.10;99.90;;;10.31;nan;101364.50;4991245;28;20657;-62
2022/10/12 03:47:36;;;;;;;4.33;2.80;;;10.10;99.90;;;10.31;nan;101369.72;4986174;28;21226;-63
2022/10/12 03:50:04;;;;;;;5.13;3.03;;;10.10;99.90;;;10.18;nan;101369.56;4990725;28;20642;-63
2022/10/12 03:52:31;;;;;;;4.50;2.20;;;10.00;99.90;;;10.03;nan;101367.81;4991344;28;20638;-63
2022/10/12 03:54:58;;;;;;;4.10;2.30;;;10.00;99.90;;;10.19;nan;101370.44;4992003;28;20669;-62
2022/10/12 03:57:25;;;;;;;2.83;2.10;;;9.90;99.90;;;10.16;nan;101376.66;4991980;28;20621;-62
2022/10/12 03:59:52;;;;;;;3.27;1.97;;;10.00;99.90;;;10.25;nan;101370.91;4990819;28;21018;-63
2022/10/12 04:02:19;;;;;;;8.10;3.63;;;10.00;99.90;;;10.27;nan;101374.25;4990127;28;20618;-62
2022/10/12 04:04:46;;;;;;;3.27;2.80;;;10.00;99.90;;;10.33;nan;101378.28;4990105;28;20661;-63
2022/10/12 04:07:13;;;;;;;3.00;2.70;;;10.00;99.90;;;10.27;nan;101370.81;4985742;28;20638;-63
2022/10/12 04:09:39;;;;;;;4.70;2.90;;;10.10;99.90;;;10.16;nan;101360.19;4999225;28;20646;-63
2022/10/12 04:12:06;;;;;;;4.50;2.27;;;10.00;99.90;;;10.23;nan;101371.91;4990849;28;20632;-63
2022/10/12 04:14:33;;;;;;;3.63;2.30;;;10.00;99.90;;;10.20;nan;101380.75;4989853;28;20686;-63
2022/10/12 04:17:00;;;;;;;3.50;2.47;;;10.00;99.90;;;10.18;nan;101376.59;4983046;28;20642;-63
2022/10/12 04:19:27;;;;;;;5.30;2.50;;;9.90;99.90;;;10.27;nan;101379.47;4983185;28;20690;-63
2022/10/12 04:21:54;;;;;;;6.43;2.80;;;10.00;99.90;;;10.31;nan;101372.34;5005625;28;21006;-63
2022/10/12 04:24:21;;;;;;;4.93;2.90;;;10.00;99.90;;;10.30;nan;101375.84;4982413;28;20646;-63
2022/10/12 04:26:48;;;;;;;5.77;2.40;;;10.00;99.90;;;10.29;nan;101376.78;4991196;28;20634;-63
2022/10/12 04:29:15;;;;;;;4.60;2.67;;;10.00;99.90;;;10.29;nan;101375.00;4991159;28;21178;-62
2022/10/12 04:31:42;;;;;;;7.30;2.97;;;10.00;99.90;;;10.16;nan;101370.63;4990652;28;21021;-63
2022/10/12 04:34:09;;;;;;;3.50;3.00;;;10.00;99.90;;;10.12;nan;101367.34;4989629;28;21202;-63
2022/10/12 04:36:36;;;;;;;9.00;3.03;;;10.00;99.90;;;10.13;nan;101369.88;4991091;28;21166;-63
2022/10/12 04:39:03;;;;;;;2.97;2.40;;;10.00;99.90;;;10.06;nan;101367.66;4988759;28;21017;-63
2022/10/12 04:41:30;;;;;;;6.70;2.37;;;9.90;99.90;;;10.12;nan;101367.34;4976225;28;20632;-63
2022/10/12 04:43:57;;;;;;;6.70;2.63;;;9.90;99.90;;;10.25;nan;101370.06;4971475;28;20669;-63
2022/10/12 04:46:24;;;;;;;3.50;2.63;;;9.90;99.90;;;10.22;nan;101365.03;4985184;28;20676;-63
2022/10/12 04:48:51;;;;;;;3.97;2.27;;;10.00;99.90;;;10.22;nan;101365.88;4990462;28;20615;-63
2022/10/12 04:51:18;;;;;;;2.17;1.97;;;10.00;99.90;;;10.18;nan;101366.16;4998458;28;20646;-63
2022/10/12 04:53:45;;;;;;;4.53;2.10;;;10.00;99.90;;;10.40;nan;101374.38;4991249;28;20625;-64
2022/10/12 04:56:12;;;;;;;6.30;3.07;;;10.00;99.90;;;10.37;nan;101378.00;4991212;28;21229;-63
2022/10/12 04:58:39;;;;;;;3.13;1.97;;;10.10;99.90;;;10.32;nan;101381.81;4991065;28;21010;-63
2022/10/12 05:01:06;;;;;;;4.20;2.40;;;10.10;99.90;;;10.19;nan;101381.69;4990003;28;20637;-63
2022/10/12 05:03:33;;;;;;;4.70;2.83;;;10.00;99.90;;;10.28;nan;101375.97;4990930;28;21196;-65
2022/10/12 05:06:04;;;;;;;4.03;2.47;;;10.00;99.90;;;10.26;nan;101385.66;4989722;28;20728;-64
2022/10/12 05:08:31;;;;;;;4.90;2.43;;;10.00;99.90;;;10.26;nan;101379.59;4989860;28;20637;-65
2022/10/12 05:10:58;;;;;;;4.67;2.20;;;10.00;99.90;;;10.13;nan;101372.47;4973864;28;20630;-63
2022/10/12 05:13:25;;;;;;;2.10;2.00;;;10.00;99.90;;;10.15;nan;101388.03;4993473;28;20671;-63
2022/10/12 05:15:52;;;;;;;2.43;2.10;;;10.00;99.90;;;10.18;nan;101389.63;4993991;28;20695;-63
2022/10/12 05:18:19;;;;;;;4.60;2.40;;;9.90;99.90;;;10.22;nan;101385.91;4994319;28;20629;-63
2022/10/12 05:20:46;;;;;;;3.93;1.90;;;10.00;99.90;;;10.13;nan;101385.53;5002602;28;20652;-62
2022/10/12 05:23:13;;;;;;;3.20;2.20;;;10.00;99.90;;;10.14;nan;101381.97;4995565;28;20620;-64
2022/10/12 05:25:40;;;;;;;2.40;2.00;;;9.90;99.90;;;10.18;nan;101387.03;4994516;28;21345;-63
2022/10/12 05:28:07;;;;;;;6.63;2.27;;;9.90;99.90;;;10.18;nan;101390.44;4995624;28;20622;-62
2022/10/12 05:30:34;;;;;;;1.97;1.80;;;9.90;99.90;;;10.19;nan;101384.31;4993793;28;20650;-63
2022/10/12 05:33:01;;;;;;;3.47;2.17;;;9.90;99.90;;;10.18;nan;101384.41;4994329;28;21231;-62
2022/10/12 05:35:28;;;;;;;8.87;2.30;;;9.90;99.90;;;10.11;nan;101392.56;4990415;28;20692;-63
2022/10/12 05:37:55;;;;;;;2.17;1.97;;;9.90;99.90;;;10.12;nan;101390.81;4985973;28;20649;-63
2022/10/12 05:40:21;;;;;;;3.00;2.63;;;9.80;99.90;;;10.01;nan;101387.94;4993149;28;21379;-63
2022/10/12 05:42:48;;;;;;;3.53;2.27;;;9.90;99.90;;;9.99;nan;101390.63;4994056;28;20676;-63
2022/10/12 05:45:15;;;;;;;2.50;2.30;;;9.80;99.90;;;10.00;nan;101392.34;4994405;28;20666;-62
2022/10/12 05:47:42;;;;;;;5.63;1.90;;;9.80;99.90;;;10.12;nan;101390.81;4994048;28;21188;-63
2022/10/12 05:50:09;;;;;;;2.30;2.10;;;9.80;99.90;;;9.99;nan;101392.41;5003776;28;20949;-63
2022/10/12 05:52:36;;;;;;;4.97;2.20;;;9.80;99.90;;;9.96;nan;101390.84;5009862;28;20653;-63
2022/10/12 05:55:04;;;;;;;3.40;2.07;;;9.80;99.90;;;9.82;nan;101395.97;4994667;28;20681;-63
2022/10/12 05:57:31;;;;;;;4.57;2.80;;;9.70;99.90;;;9.88;nan;101392.19;4992030;28;20637;-63
2022/10/12 05:59:58;;;;;;;6.50;2.30;;;9.60;99.90;;;9.79;nan;101390.97;4994027;28;20971;-64
2022/10/12 06:02:25;;;;;;;4.87;2.87;;;9.60;99.90;;;9.61;nan;101388.53;4988280;28;20644;-63
2022/10/12 06:04:52;;;;;;;3.73;2.17;;;9.50;99.90;;;9.67;nan;101409.06;4992758;28;21274;-63
2022/10/12 06:07:19;;;;;;;4.30;2.10;;;9.50;99.90;;;9.84;nan;101396.72;4993867;28;20617;-63
2022/10/12 06:09:47;;;;;;;5.70;2.47;;;9.50;99.90;;;9.88;nan;101400.03;4993012;28;20643;-63
2022/10/12 06:12:15;;;;;;;3.53;1.90;;;9.60;99.90;;;9.98;nan;101403.78;4977157;28;20630;-63
2022/10/12 06:14:42;;;;;;;4.93;1.70;;;9.70;99.90;;;10.06;nan;101404.16;4992681;28;21288;-63
2022/10/12 06:17:09;;;;;;;2.80;2.23;;;9.70;99.90;;;10.24;nan;101403.16;4993896;28;20646;-63
2022/10/12 06:19:36;;;;;;;3.00;1.63;;;9.80;99.90;;;10.34;nan;101395.63;4997874;28;20637;-63
2022/10/12 06:22:03;;;;;;;2.30;2.20;;;9.90;99.90;;;10.35;nan;101392.91;5006862;28;20642;-63
2022/10/12 06:24:30;;;;;;;5.10;2.57;;;9.90;99.90;;;10.26;nan;101398.69;4992090;28;20644;-64
2022/10/12 06:26:57;;;;;;;13.83;2.60;;;9.90;99.90;;;10.29;nan;101403.69;4992652;28;20648;-64
2022/10/12 06:29:24;;;;;;;4.53;2.50;;;9.90;99.90;;;10.30;nan;101394.97;4992514;28;20638;-63
2022/10/12 06:31:51;;;;;;;7.63;1.83;;;10.00;99.90;;;10.23;nan;101404.06;4993286;28;20622;-63
2022/10/12 06:34:18;;;;;;;5.53;2.50;;;10.00;99.90;;;10.26;nan;101397.84;4992794;28;20641;-64
2022/10/12 06:36:45;;;;;;;3.40;2.63;;;10.00;99.90;;;10.18;nan;101400.88;4992694;28;20689;-63
2022/10/12 06:39:12;;;;;;;6.13;2.80;;;9.90;99.90;;;10.63;nan;101403.38;4993068;28;20625;-64
2022/10/12 06:41:40;;;;;;;3.20;2.23;;;10.10;99.90;;;10.75;nan;101397.41;4976440;28;20629;-64
2022/10/12 06:44:07;;;;;;;4.33;2.80;;;10.30;99.90;;;11.12;nan;101398.63;4992262;28;20630;-64
2022/10/12 06:46:34;;;;;;;4.20;2.67;;;10.40;99.90;;;11.57;nan;101398.34;4990056;28;20665;-63
2022/10/12 06:49:01;;;;;;;8.27;2.40;;;10.80;99.90;;;11.88;nan;101405.09;4971406;28;21248;-63
2022/10/12 06:51:28;;;;;;;5.43;2.60;;;11.00;99.90;;;12.49;nan;101404.47;4991980;28;20637;-63
2022/10/12 06:53:55;;;;;;;5.37;2.60;;;11.40;99.90;;;12.92;nan;101399.75;4973962;28;20948;-64
2022/10/12 06:56:22;;;;;;;2.97;2.23;;;11.80;99.90;;;13.09;nan;101402.06;4992184;28;20732;-64
2022/10/12 06:58:54;;;;;;;4.00;2.37;;;12.00;99.90;;;12.91;nan;101405.94;4991194;28;21217;-65
2022/10/12 07:01:22;;;;;;;3.50;2.40;;;12.10;99.90;;;12.72;nan;101402.91;4992481;28;20631;-64
2022/10/12 07:03:49;;;;;;;4.40;2.80;;;12.00;99.90;;;12.60;nan;101412.44;4989732;28;20645;-66
2022/10/12 07:06:17;;;;;;;5.97;2.63;;;11.90;99.90;;;12.52;nan;101404.28;4987021;28;20663;-64
2022/10/12 07:08:44;;;;;;;13.03;3.27;;;11.80;99.90;;;12.15;nan;101405.06;4974537;28;21391;-63
2022/10/12 07:11:19;;;;;;;3.53;2.43;;;11.70;99.90;;;12.19;nan;101415.22;4992059;28;20848;-64
2022/10/12 07:13:47;;;;;;;3.10;2.33;;;11.60;99.90;;;12.03;nan;101406.69;4993411;28;20635;-64
2022/10/12 07:16:15;;;;;;;4.57;2.43;;;11.50;99.90;;;12.36;nan;101399.22;4974416;28;20678;-64
2022/10/12 07:18:41;;;;;;;6.50;2.30;;;11.60;99.90;;;12.53;nan;101411.19;4978892;28;20624;-63
2022/10/12 07:21:08;;;;;;;3.53;2.40;;;11.80;99.90;;;12.80;nan;101408.47;5007289;28;20645;-65
2022/10/12 07:23:37;;;;;;;4.17;2.03;;;12.00;99.90;;;12.78;nan;101405.94;4995098;28;20668;-62
2022/10/12 07:26:09;;;;;;;6.13;2.60;;;12.10;99.90;;;13.22;nan;101411.56;4995895;28;20665;-64
2022/10/12 07:28:37;;;;;;;4.13;2.07;;;12.30;99.90;;;14.35;nan;101412.06;5006425;28;20649;-64
2022/10/12 07:31:07;;;;;;;10.43;2.27;;;12.80;99.90;;;16.91;nan;101424.47;4992492;28;20638;-64
2022/10/12 07:33:37;;;;;;;3.90;2.77;;;14.10;99.90;;;18.92;nan;101422.00;4991489;28;20705;-65
2022/10/12 07:36:05;;;;;;;3.07;2.60;;;15.70;99.90;;;20.68;nan;101424.81;4971840;28;21055;-65
2022/10/12 07:38:46;;;;;;;9.03;2.80;;;17.10;99.90;;;22.33;nan;101427.53;4989326;28;20986;-64
2022/10/12 07:41:13;;;;;;;3.33;3.03;;;18.60;99.90;;;23.26;nan;101427.81;4991820;28;20637;-65
2022/10/12 07:43:41;;;;;;;6.20;3.30;;;19.70;97.70;;;23.99;nan;101433.59;4991684;28;20627;-62
2022/10/12 07:46:08;;;;;;;4.97;2.87;;;20.60;95.00;;;25.11;nan;101434.38;4991169;28;21268;-63
2022/10/12 07:48:36;;;;;;;6.37;4.27;;;21.50;92.10;;;25.95;nan;101431.09;4991037;28;20631;-67
2022/10/12 07:51:06;;;;;;;9.30;3.47;;;22.30;89.40;;;26.85;nan;101434.78;4984311;28;20639;-61
2022/10/12 07:53:35;;;;;;;7.43;3.60;;;23.00;84.30;;;27.25;nan;101431.25;4995164;28;20636;-64
2022/10/12 07:56:08;;;;;;;5.87;3.30;;;23.50;79.60;;;28.01;nan;101426.56;4993453;28;20672;-65
2022/10/12 07:58:35;;;;;;;4.70;3.30;;;24.10;76.60;;;28.54;nan;101428.22;4980965;28;20639;-65
2022/10/12 08:01:07;;;;;;;5.00;3.23;;;24.60;73.00;;;27.44;nan;101425.19;4988546;28;21197;-64
2022/10/12 08:03:34;;;;;;;7.07;3.80;;;24.20;71.90;;;27.48;nan;101426.44;4991221;28;20635;-65
2022/10/12 08:06:13;;;;;;;9.53;3.60;;;24.00;71.60;;;28.52;nan;101430.28;4963342;28;21234;-64
2022/10/12 08:08:41;;;;;;;7.70;3.50;;;24.50;70.10;;;29.39;nan;101427.22;4984555;28;20635;-64
2022/10/12 08:11:09;;;;;;;7.07;3.40;;;25.00;68.10;;;30.44;nan;101427.38;4970442;28;20713;-61
2022/10/12 08:13:37;;;;;;;4.63;3.40;;;25.70;66.70;;;30.06;nan;101424.75;4972217;28;20616;-63
2022/10/12 08:16:08;;;;;;;4.80;3.40;;;25.70;64.70;;;30.65;nan;101429.63;4974290;28;20700;-63
2022/10/12 08:18:35;;;;;;;3.67;3.33;;;26.00;64.30;;;31.00;nan;101432.63;4991921;28;20986;-64
2022/10/12 08:21:07;;;;;;;6.30;3.20;;;26.20;63.70;;;30.90;nan;101432.34;4988090;28;20639;-63
2022/10/12 08:23:35;;;;;;;4.67;3.70;;;26.30;62.40;;;30.81;nan;101433.63;4993208;28;20631;-64
2022/10/12 08:26:03;;;;;;;3.80;3.43;;;26.40;61.80;;;30.28;nan;101430.59;4984763;28;21041;-63
2022/10/12 08:28:31;;;;;;;5.10;3.40;;;26.30;61.60;;;31.01;nan;101426.16;4986353;28;20640;-63
2022/10/12 08:30:58;;;;;;;5.60;3.83;;;26.60;60.60;;;30.61;nan;101417.66;4976996;28;20643;-62
2022/10/12 08:33:28;;;;;;;6.17;3.80;;;26.80;60.10;;;30.69;nan;101420.06;4990898;28;21000;-64
2022/10/12 08:35:55;;;;;;;4.73;3.63;;;26.80;59.90;;;27.91;nan;101413.53;4983630;28;20686;-63
2022/10/12 08:38:22;;;;;;;6.57;3.57;;;25.70;60.00;;;25.31;nan;101408.78;4990528;28;21009;-64
2022/10/12 08:41:04;;;;;;;5.00;3.67;;;24.20;62.70;;;23.83;nan;101405.22;4991022;28;20716;-63
2022/10/12 08:44:02;;;;;;;10.43;3.90;;;22.70;66.10;;;22.08;nan;101401.13;4975019;28;20629;-64
2022/10/12 08:46:30;;;;;;;6.13;4.17;;;21.30;69.20;;;21.60;nan;101397.38;4980639;28;20667;-64
2022/10/12 08:49:16;;;;;;;7.50;3.97;;;20.40;72.80;;;20.76;nan;101398.38;4990048;28;20630;-63
2022/10/12 08:51:56;;;;;;;7.10;4.10;;;19.70;74.10;;;19.95;nan;101387.13;4965439;28;20628;-65
2022/10/12 08:54:28;;;;;;;6.10;3.50;;;19.20;76.40;;;19.90;nan;101392.06;4992625;28;21233;-64
2022/10/12 08:56:56;;;;;;;4.23;3.60;;;18.80;79.20;;;19.85;nan;101393.50;4957147;28;21306;-64
2022/10/12 08:59:24;;;;;;;7.70;3.70;;;18.50;80.90;;;19.36;nan;101397.47;4969438;28;20635;-65
2022/10/12 09:02:25;;;;;;;5.10;3.40;;;18.20;82.90;;;19.04;nan;101394.38;4967491;28;20635;-63
2022/10/12 09:05:08;;;;;;;4.60;3.00;;;17.90;84.80;;;19.04;nan;101402.31;4990598;28;20667;-63
2022/10/12 09:07:43;;;;;;;6.10;3.57;;;17.80;87.20;;;19.21;nan;101409.47;4982458;28;20638;-64
2022/10/12 09:10:25;;;;;;;5.13;3.40;;;17.70;88.30;;;19.00;nan;101408.88;4972906;28;20727;-63
2022/10/12 09:13:18;;;;;;;4.97;3.17;;;17.60;90.00;;;18.67;nan;101406.78;4990660;28;20648;-65
2022/10/12 09:15:52;;;;;;;4.47;3.13;;;17.30;90.90;;;18.33;nan;101411.72;4993974;28;20671;-63
2022/10/12 09:18:45;;;;;;;6.27;3.47;;;17.00;92.20;;;18.27;nan;101410.44;4974348;28;21170;-64
2022/10/12 09:21:18;;;;;;;5.87;3.23;;;16.90;93.20;;;18.21;nan;101413.66;4973722;28;20963;-64
2022/10/12 09:23:46;;;;;;;8.47;3.63;;;16.80;94.30;;;18.15;nan;101413.38;4980158;28;21270;-64
2022/10/12 09:26:20;;;;;;;11.07;3.50;;;16.90;94.90;;;18.27;nan;101421.00;4974027;28;20643;-64
2022/10/12 09:28:56;;;;;;;5.43;2.93;;;17.00;95.50;;;18.43;nan;101418.66;4971567;28;20656;-65
2022/10/12 09:32:03;;;;;;;9.50;2.87;;;17.10;95.40;;;17.85;nan;101411.72;4983350;28;20618;-64
2022/10/12 09:37:03;;;;;;;5.57;2.97;;;16.90;96.60;;;18.33;nan;101423.13;4969181;28;20761;-63
2022/10/12 09:39:34;;;;;;;8.63;2.83;;;16.90;96.90;;;18.54;nan;101428.25;4970592;28;20622;-63
2022/10/12 09:42:02;;;;;;;5.20;3.13;;;17.00;97.00;;;18.79;nan;101414.41;4971890;28;21210;-63
2022/10/12 09:44:41;;;;;;;5.10;3.73;;;17.10;97.20;;;18.89;nan;101415.19;4969992;28;20616;-63
2022/10/12 09:47:20;;;;;;;4.50;2.50;;;17.10;97.50;;;19.37;nan;101422.97;4989554;28;20623;-64
2022/10/12 09:49:50;;;;;;;4.57;3.03;;;17.40;97.40;;;19.78;nan;101413.66;4990588;28;20653;-66
2022/10/12 09:52:27;;;;;;;9.30;3.00;;;17.70;97.10;;;20.19;nan;101414.84;4972756;28;20668;-63
2022/10/12 09:55:06;;;;;;;7.83;3.50;;;17.90;96.70;;;20.44;nan;101406.13;4973110;28;20654;-64
2022/10/12 09:57:38;;;;;;;4.87;3.43;;;18.20;96.40;;;20.90;nan;101405.72;4973089;28;21109;-64
2022/10/12 10:00:33;;;;;;;5.60;3.70;;;18.50;96.30;;;21.12;nan;101399.91;4974105;28;20634;-65
2022/10/12 10:03:02;;;;;;;3.00;2.80;;;18.80;95.60;;;21.84;nan;101401.94;4989444;28;20641;-65
2022/10/12 10:05:30;;;;;;;6.43;3.27;;;19.20;95.40;;;22.97;nan;101405.34;4992487;28;21186;-64
2022/10/12 10:08:21;;;;;;;3.93;2.80;;;19.90;94.10;;;24.14;nan;101400.69;4992922;28;20653;-65
2022/10/12 10:10:54;;;;;;;5.97;2.97;;;20.70;92.60;;;24.61;nan;101403.91;4976948;28;21048;-64
2022/10/12 10:13:30;;;;;;;7.23;3.00;;;21.20;91.70;;;26.09;nan;101411.50;4993982;28;20618;-65
2022/10/12 10:16:07;;;;;;;4.43;3.27;;;21.90;90.50;;;28.97;nan;101407.91;4975710;28;21253;-65
2022/10/12 10:18:39;;;;;;;5.80;3.50;;;23.50;86.00;;;28.95;nan;101403.78;4960288;28;20799;-65
2022/10/12 10:21:10;;;;;;;6.93;3.27;;;24.20;81.60;;;29.65;nan;101402.88;4991873;28;20995;-64
2022/10/12 10:23:51;;;;;;;7.80;3.37;;;24.80;78.80;;;30.55;nan;101405.94;4976535;28;20669;-65
2022/10/12 10:26:21;;;;;;;12.40;4.00;;;25.40;75.60;;;29.79;nan;101402.59;4975564;28;20634;-64
2022/10/12 10:28:55;;;;;;;6.83;3.80;;;25.40;74.30;;;28.43;nan;101402.00;4975507;28;21151;-65
2022/10/12 10:31:26;;;;;;;7.20;3.83;;;25.10;73.90;;;27.10;nan;101400.28;4992056;28;20637;-65
2022/10/12 10:34:17;;;;;;;11.13;4.00;;;24.40;75.10;;;25.34;nan;101403.06;4993896;28;20630;-64
2022/10/12 10:36:51;;;;;;;8.00;3.90;;;23.60;77.00;;;24.13;nan;101396.34;4992900;28;20677;-66
2022/10/12 10:39:33;;;;;;;3.63;3.30;;;22.70;79.10;;;23.77;nan;101396.09;4965989;28;20685;-65
2022/10/12 10:42:11;;;;;;;3.07;2.87;;;22.10;81.60;;;23.38;nan;101399.88;4972419;28;20619;-65
2022/10/12 10:44:38;;;;;;;8.43;3.87;;;21.70;83.00;;;22.58;nan;101404.41;4966407;28;21231;-64
2022/10/12 10:47:11;;;;;;;6.20;2.83;;;21.30;84.30;;;21.85;nan;101389.50;4976172;28;20673;-64
2022/10/12 10:49:48;;;;;;;5.43;3.07;;;20.80;85.70;;;21.69;nan;101390.28;4972929;28;20669;-64
2022/10/12 10:52:29;;;;;;;4.07;3.57;;;20.50;87.50;;;21.71;nan;101393.59;4973851;28;20626;-64
2022/10/12 10:55:21;;;;;;;6.40;3.77;;;20.30;89.30;;;21.77;nan;101382.31;4972674;28;21210;-65